LROPLRIA

Guest
Details From LROP - Bucarest Otopeni Intl
To LRIA - IASI
Flight Number -
Tags generated
Created
Modified
Stats Distance 169 nm / 313 km
Max Altitude 13,300 ft / 4,054 m
Waypoints 3
Social Downloads 8
Likes 0
Share VATSIM

Download

Looking for another format? Having issues loading an existing format? Contact us
Advertisement - Login to hide

Notes

Basic altitude profile: - Ascent Rate: 2500ft/min - Ascent Speed: 250kts - Cruise Altitude: 35000ft - Cruise Speed: 420kts - Descent Rate: 1500ft/min - Descent Speed: 250kts Options: - Use NATs: yes - Use PACOTS: yes - Use low airways: yes - Use high airways: yes

Route

LROP PELES LRIA

ID Type Via Altitude Latitude Longitude Leg Dist Tot Dist Heading (true) Name
O LROP APT - 0 ft / 0 m 44.57216˚ 26.10218˚ - 0 nm - Bucarest Otopeni Intl
PELES FIX - 13,300 ft / 4,054 m 46.21736˚ 27.05329˚ 106 nm 106 nm 22° / 22° -
O LRIA APT - 0 ft / 0 m 47.17849˚ 27.62063˚ 62 nm 168 nm 22° / 22° IASI

Altitude Profile

Advertisement - Login to hide

Weather


0- 5 10 15 20 25 30 35+ Temperature / ° C

Clouds and Precipitation
Forecast for 2017-12-14 06:00 UTC. Updated an hour ago

Ground ~20,000 ft ~40,000 ft Winds

LROP

Details ICAO LROP (OTP)
Name Bucarest Otopeni Intl
Region Romania
Timezone Europe/Bucharest (UTC+2.0)
Stats Elevation 314 ft / 96 m (AMSL)
Location 44.572161° 26.102177°
Runways 2
Magnetic Variation 5.606° E

METAR

LROP 140600Z AUTO 24007KT 5000 BR OVC007 04/03 Q1012 BECMG 5000

Decode

TAF

TAF LROP 140500Z 1406/1506 26010KT 3000 BR BKN010 BECMG 1408/1410 CAVOK BECMG 1418/1420 5000 BR BKN015 TEMPO 1422/1506 3000 BR BKN010

Decode

Departure Runways

ID Width Length Bearing (true) Bearing (mag) Surface Threshold Offset Overrun Length
08L 148 ft / 45 m 11,457 ft / 3,492 m 83.91° 78.30° Asphalt 500 ft / 152 m 0 ft / 0 m
08R 148 ft / 45 m 11,455 ft / 3,491 m 83.89° 78.28° Asphalt 450 ft / 137 m 0 ft / 0 m
26L 148 ft / 45 m 11,455 ft / 3,491 m 263.92° 258.31° Asphalt 450 ft / 137 m 0 ft / 0 m
26R 148 ft / 45 m 11,457 ft / 3,492 m 263.94° 258.33° Asphalt 500 ft / 152 m 0 ft / 0 m

LRIA

Details ICAO LRIA (IAS)
Name IASI
Region Romania
Timezone Europe/Bucharest (UTC+2.0)
Stats Elevation 397 ft / 121 m (AMSL)
Location 47.178490° 27.620632°
Runways 1
Magnetic Variation 6.316° E

METAR

LRIA 140600Z VRB02KT 7000 BKN003 02/01 Q1010 R14/29//95

Decode

TAF

Not found

Destination Runways

ID Width Length Bearing (true) Bearing (mag) Surface Threshold Offset Overrun Length
15 98 ft / 30 m 5,841 ft / 1,780 m 154.46° 148.14° Concrete 0 ft / 0 m 0 ft / 0 m
33 98 ft / 30 m 5,841 ft / 1,780 m 334.46° 328.14° Concrete 0 ft / 0 m 0 ft / 0 m

Approach Navaids

Runway Type Ident Frequency Range Bearing (true) Bearing (mag) Slope Elevation
15 Localiser IIS 109.10 MHz 18 nm / 33 km 154.92° 148.60° - 397 ft / 121 m (AMSL)
15 Glidescope IIS 109.10 MHz 10 nm / 19 km 154.46° 148.15° 3.00° 397 ft / 121 m (AMSL)
15 DME IIS 109.10 MHz 18 nm / 33 km - - - 500 ft / 152 m (AMSL)

Popular Alternatives